sensor_id;sensor_type;location;lat;lon;timestamp;temperature;humidity
23544;DHT22;11950;51.230;4.012;2024-03-23T00:52:32;10.10;99.90
23544;DHT22;11950;51.230;4.012;2024-03-23T00:54:59;10.00;99.90
23544;DHT22;11950;51.230;4.012;2024-03-23T00:57:25;10.00;99.90
23544;DHT22;11950;51.230;4.012;2024-03-23T00:59:51;10.00;99.90
23544;DHT22;11950;51.230;4.012;2024-03-23T01:02:17;10.00;99.90
23544;DHT22;11950;51.230;4.012;2024-03-23T01:04:44;10.00;99.90
23544;DHT22;11950;51.230;4.012;2024-03-23T01:07:10;10.00;99.90
23544;DHT22;11950;51.230;4.012;2024-03-23T01:09:37;9.90;99.90
23544;DHT22;11950;51.230;4.012;2024-03-23T01:12:05;9.90;99.90
23544;DHT22;11950;51.230;4.012;2024-03-23T01:14:31;9.80;99.90
23544;DHT22;11950;51.230;4.012;2024-03-23T01:16:58;9.80;99.90
23544;DHT22;11950;51.230;4.012;2024-03-23T01:19:24;9.70;99.90
23544;DHT22;11950;51.230;4.012;2024-03-23T01:21:51;9.60;99.90
23544;DHT22;11950;51.230;4.012;2024-03-23T01:24:17;9.50;99.90
23544;DHT22;11950;51.230;4.012;2024-03-23T01:26:43;9.50;99.90
23544;DHT22;11950;51.230;4.012;2024-03-23T01:29:09;9.40;99.90
23544;DHT22;11950;51.230;4.012;2024-03-23T01:31:35;9.50;99.90
23544;DHT22;11950;51.230;4.012;2024-03-23T01:34:01;9.40;99.90
23544;DHT22;11950;51.230;4.012;2024-03-23T01:36:29;9.50;99.90
23544;DHT22;11950;51.230;4.012;2024-03-23T01:38:55;9.40;99.90
23544;DHT22;11950;51.230;4.012;2024-03-23T01:41:21;9.40;99.90
23544;DHT22;11950;51.230;4.012;2024-03-23T01:43:50;9.30;99.90
23544;DHT22;11950;51.230;4.012;2024-03-23T01:46:17;9.30;99.90
23544;DHT22;11950;51.230;4.012;2024-03-23T01:48:43;9.20;99.90
23544;DHT22;11950;51.230;4.012;2024-03-23T01:51:09;9.10;99.90
23544;DHT22;11950;51.230;4.012;2024-03-23T01:53:37;9.10;99.90
23544;DHT22;11950;51.230;4.012;2024-03-23T01:56:03;9.00;99.90
23544;DHT22;11950;51.230;4.012;2024-03-23T01:58:30;8.90;99.90
23544;DHT22;11950;51.230;4.012;2024-03-23T02:00:57;8.90;99.90
23544;DHT22;11950;51.230;4.012;2024-03-23T02:03:25;8.90;99.90
23544;DHT22;11950;51.230;4.012;2024-03-23T02:05:53;8.80;99.90
23544;DHT22;11950;51.230;4.012;2024-03-23T02:08:20;8.80;99.90
23544;DHT22;11950;51.230;4.012;2024-03-23T02:10:51;8.70;99.90
23544;DHT22;11950;51.230;4.012;2024-03-23T02:13:20;8.60;99.90
23544;DHT22;11950;51.230;4.012;2024-03-23T02:15:46;8.50;99.90
23544;DHT22;11950;51.230;4.012;2024-03-23T02:18:15;8.50;99.90
23544;DHT22;11950;51.230;4.012;2024-03-23T02:20:41;8.50;99.90
23544;DHT22;11950;51.230;4.012;2024-03-23T02:23:17;8.40;99.90
23544;DHT22;11950;51.230;4.012;2024-03-23T02:25:46;8.40;99.90
23544;DHT22;11950;51.230;4.012;2024-03-23T02:28:13;8.30;99.90
23544;DHT22;11950;51.230;4.012;2024-03-23T02:30:39;8.30;99.90
23544;DHT22;11950;51.230;4.012;2024-03-23T02:33:05;8.30;99.90
23544;DHT22;11950;51.230;4.012;2024-03-23T02:35:31;8.20;99.90
23544;DHT22;11950;51.230;4.012;2024-03-23T02:37:58;8.10;99.90
23544;DHT22;11950;51.230;4.012;2024-03-23T02:40:24;8.10;99.90
23544;DHT22;11950;51.230;4.012;2024-03-23T02:42:50;8.10;99.90
23544;DHT22;11950;51.230;4.012;2024-03-23T02:45:17;8.10;99.90
23544;DHT22;11950;51.230;4.012;2024-03-23T02:47:43;8.00;99.90
23544;DHT22;11950;51.230;4.012;2024-03-23T02:50:09;8.00;99.90
23544;DHT22;11950;51.230;4.012;2024-03-23T02:52:36;8.00;99.90
23544;DHT22;11950;51.230;4.012;2024-03-23T02:55:03;7.90;99.90
23544;DHT22;11950;51.230;4.012;2024-03-23T02:57:30;7.90;99.90
23544;DHT22;11950;51.230;4.012;2024-03-23T02:59:56;7.90;99.90
23544;DHT22;11950;51.230;4.012;2024-03-23T03:02:22;7.90;99.90
23544;DHT22;11950;51.230;4.012;2024-03-23T03:04:49;7.80;99.90
23544;DHT22;11950;51.230;4.012;2024-03-23T03:07:15;7.80;99.90
23544;DHT22;11950;51.230;4.012;2024-03-23T03:09:41;7.80;99.90
23544;DHT22;11950;51.230;4.012;2024-03-23T03:12:08;7.70;99.90
23544;DHT22;11950;51.230;4.012;2024-03-23T03:14:34;7.70;99.90
23544;DHT22;11950;51.230;4.012;2024-03-23T03:17:01;7.60;99.90
23544;DHT22;11950;51.230;4.012;2024-03-23T03:19:27;7.60;99.90
23544;DHT22;11950;51.230;4.012;2024-03-23T03:21:53;7.60;99.90
23544;DHT22;11950;51.230;4.012;2024-03-23T03:24:19;7.60;99.90
23544;DHT22;11950;51.230;4.012;2024-03-23T03:26:46;7.50;99.90
23544;DHT22;11950;51.230;4.012;2024-03-23T03:29:12;7.50;99.90
23544;DHT22;11950;51.230;4.012;2024-03-23T03:31:45;7.50;99.90
23544;DHT22;11950;51.230;4.012;2024-03-23T03:34:11;7.40;99.90
23544;DHT22;11950;51.230;4.012;2024-03-23T03:36:37;7.50;99.90
23544;DHT22;11950;51.230;4.012;2024-03-23T03:39:03;7.50;99.90
23544;DHT22;11950;51.230;4.012;2024-03-23T03:41:31;7.50;99.90
23544;DHT22;11950;51.230;4.012;2024-03-23T03:43:58;7.50;99.90
23544;DHT22;11950;51.230;4.012;2024-03-23T03:46:28;7.50;99.90
23544;DHT22;11950;51.230;4.012;2024-03-23T03:48:54;7.50;99.90
23544;DHT22;11950;51.230;4.012;2024-03-23T03:51:21;7.50;99.90
23544;DHT22;11950;51.230;4.012;2024-03-23T03:53:47;7.60;99.90
23544;DHT22;11950;51.230;4.012;2024-03-23T03:56:13;7.60;99.90
23544;DHT22;11950;51.230;4.012;2024-03-23T03:58:39;7.60;99.90
23544;DHT22;11950;51.230;4.012;2024-03-23T04:01:08;7.50;99.90
23544;DHT22;11950;51.230;4.012;2024-03-23T04:03:35;7.50;99.90
23544;DHT22;11950;51.230;4.012;2024-03-23T04:06:01;7.50;99.90
23544;DHT22;11950;51.230;4.012;2024-03-23T04:08:27;7.50;99.90
23544;DHT22;11950;51.230;4.012;2024-03-23T04:10:53;7.50;99.90
23544;DHT22;11950;51.230;4.012;2024-03-23T04:13:20;7.50;99.90
23544;DHT22;11950;51.230;4.012;2024-03-23T04:15:46;7.50;99.90
23544;DHT22;11950;51.230;4.012;2024-03-23T04:18:12;7.50;99.90
23544;DHT22;11950;51.230;4.012;2024-03-23T04:20:38;7.50;99.90
23544;DHT22;11950;51.230;4.012;2024-03-23T04:23:04;7.60;99.90
23544;DHT22;11950;51.230;4.012;2024-03-23T04:25:31;7.50;99.90
23544;DHT22;11950;51.230;4.012;2024-03-23T04:27:57;7.50;99.90
23544;DHT22;11950;51.230;4.012;2024-03-23T04:30:23;7.60;99.90
23544;DHT22;11950;51.230;4.012;2024-03-23T04:32:51;7.60;99.90
23544;DHT22;11950;51.230;4.012;2024-03-23T04:35:17;7.70;99.90
23544;DHT22;11950;51.230;4.012;2024-03-23T04:37:43;7.70;99.90
23544;DHT22;11950;51.230;4.012;2024-03-23T04:40:10;7.60;99.90
23544;DHT22;11950;51.230;4.012;2024-03-23T04:42:37;7.60;99.90
23544;DHT22;11950;51.230;4.012;2024-03-23T04:45:04;7.60;99.90
23544;DHT22;11950;51.230;4.012;2024-03-23T04:47:32;7.60;99.90
23544;DHT22;11950;51.230;4.012;2024-03-23T04:49:58;7.60;99.90
23544;DHT22;11950;51.230;4.012;2024-03-23T04:52:24;7.60;99.90
23544;DHT22;11950;51.230;4.012;2024-03-23T04:54:50;7.60;99.90
23544;DHT22;11950;51.230;4.012;2024-03-23T04:57:17;7.60;99.90
23544;DHT22;11950;51.230;4.012;2024-03-23T04:59:46;7.60;99.90
23544;DHT22;11950;51.230;4.012;2024-03-23T05:02:13;7.60;99.90
23544;DHT22;11950;51.230;4.012;2024-03-23T05:04:41;7.60;99.90
23544;DHT22;11950;51.230;4.012;2024-03-23T05:07:07;7.60;99.90
23544;DHT22;11950;51.230;4.012;2024-03-23T05:09:34;7.60;99.90
23544;DHT22;11950;51.230;4.012;2024-03-23T05:12:00;7.60;99.90
23544;DHT22;11950;51.230;4.012;2024-03-23T05:14:26;7.70;99.90
23544;DHT22;11950;51.230;4.012;2024-03-23T05:16:53;7.70;99.90
23544;DHT22;11950;51.230;4.012;2024-03-23T05:19:19;7.70;99.90
23544;DHT22;11950;51.230;4.012;2024-03-23T05:21:45;7.70;99.90
23544;DHT22;11950;51.230;4.012;2024-03-23T05:24:12;7.80;99.90
23544;DHT22;11950;51.230;4.012;2024-03-23T05:26:38;7.80;99.90
23544;DHT22;11950;51.230;4.012;2024-03-23T05:29:04;7.90;99.90
23544;DHT22;11950;51.230;4.012;2024-03-23T05:31:32;7.90;99.90
23544;DHT22;11950;51.230;4.012;2024-03-23T05:33:59;7.80;99.90
23544;DHT22;11950;51.230;4.012;2024-03-23T05:36:25;7.80;99.90
23544;DHT22;11950;51.230;4.012;2024-03-23T05:38:51;7.90;99.90
23544;DHT22;11950;51.230;4.012;2024-03-23T05:41:18;7.90;99.90
23544;DHT22;11950;51.230;4.012;2024-03-23T05:43:44;7.90;99.90
23544;DHT22;11950;51.230;4.012;2024-03-23T05:46:10;7.80;99.90
23544;DHT22;11950;51.230;4.012;2024-03-23T05:48:36;7.90;99.90
23544;DHT22;11950;51.230;4.012;2024-03-23T05:51:03;7.80;99.90
23544;DHT22;11950;51.230;4.012;2024-03-23T05:53:29;7.90;99.90
23544;DHT22;11950;51.230;4.012;2024-03-23T05:56:03;7.90;99.90
23544;DHT22;11950;51.230;4.012;2024-03-23T05:58:33;7.90;99.90
23544;DHT22;11950;51.230;4.012;2024-03-23T06:01:00;7.90;99.90
23544;DHT22;11950;51.230;4.012;2024-03-23T06:03:27;7.80;99.90
23544;DHT22;11950;51.230;4.012;2024-03-23T06:05:54;7.80;99.90
23544;DHT22;11950;51.230;4.012;2024-03-23T06:08:21;7.80;99.90
23544;DHT22;11950;51.230;4.012;2024-03-23T06:10:47;7.80;99.90
23544;DHT22;11950;51.230;4.012;2024-03-23T06:13:14;7.80;99.90
23544;DHT22;11950;51.230;4.012;2024-03-23T06:15:40;7.90;99.90
23544;DHT22;11950;51.230;4.012;2024-03-23T06:18:07;8.00;99.90
23544;DHT22;11950;51.230;4.012;2024-03-23T06:20:34;8.20;99.90
23544;DHT22;11950;51.230;4.012;2024-03-23T06:23:01;8.50;99.90
23544;DHT22;11950;51.230;4.012;2024-03-23T06:25:29;8.60;99.90
23544;DHT22;11950;51.230;4.012;2024-03-23T06:27:56;8.70;99.90
23544;DHT22;11950;51.230;4.012;2024-03-23T06:30:24;8.90;99.90
23544;DHT22;11950;51.230;4.012;2024-03-23T06:32:50;9.10;99.90
23544;DHT22;11950;51.230;4.012;2024-03-23T06:35:17;9.30;99.90
23544;DHT22;11950;51.230;4.012;2024-03-23T06:37:43;9.50;99.90
23544;DHT22;11950;51.230;4.012;2024-03-23T06:40:09;9.80;99.90
23544;DHT22;11950;51.230;4.012;2024-03-23T06:42:36;10.00;99.90
23544;DHT22;11950;51.230;4.012;2024-03-23T06:45:03;10.00;99.90
23544;DHT22;11950;51.230;4.012;2024-03-23T06:47:31;9.90;99.90
23544;DHT22;11950;51.230;4.012;2024-03-23T06:49:58;9.80;99.90
23544;DHT22;11950;51.230;4.012;2024-03-23T06:52:25;9.70;99.90
23544;DHT22;11950;51.230;4.012;2024-03-23T06:54:51;9.50;99.90
23544;DHT22;11950;51.230;4.012;2024-03-23T06:57:17;9.40;99.90
23544;DHT22;11950;51.230;4.012;2024-03-23T06:59:43;9.30;99.90
23544;DHT22;11950;51.230;4.012;2024-03-23T07:02:10;9.30;99.90
23544;DHT22;11950;51.230;4.012;2024-03-23T07:04:36;9.30;99.90
23544;DHT22;11950;51.230;4.012;2024-03-23T07:07:03;9.30;99.90
23544;DHT22;11950;51.230;4.012;2024-03-23T07:09:29;9.30;99.90
23544;DHT22;11950;51.230;4.012;2024-03-23T07:11:56;9.30;99.90
23544;DHT22;11950;51.230;4.012;2024-03-23T07:14:23;9.30;99.90
23544;DHT22;11950;51.230;4.012;2024-03-23T07:16:50;9.30;99.90
23544;DHT22;11950;51.230;4.012;2024-03-23T07:19:17;9.40;99.90
23544;DHT22;11950;51.230;4.012;2024-03-23T07:21:46;9.50;99.90
23544;DHT22;11950;51.230;4.012;2024-03-23T07:24:14;9.70;99.90
23544;DHT22;11950;51.230;4.012;2024-03-23T07:26:40;10.00;99.90
23544;DHT22;11950;51.230;4.012;2024-03-23T07:29:06;10.20;99.90
23544;DHT22;11950;51.230;4.012;2024-03-23T07:31:33;10.60;99.90
23544;DHT22;11950;51.230;4.012;2024-03-23T07:33:59;10.70;99.90
23544;DHT22;11950;51.230;4.012;2024-03-23T07:36:25;10.70;99.90
23544;DHT22;11950;51.230;4.012;2024-03-23T07:38:51;10.50;99.90
23544;DHT22;11950;51.230;4.012;2024-03-23T07:41:19;10.30;99.90
23544;DHT22;11950;51.230;4.012;2024-03-23T07:43:47;10.10;99.90
23544;DHT22;11950;51.230;4.012;2024-03-23T07:46:15;10.00;99.90
23544;DHT22;11950;51.230;4.012;2024-03-23T07:48:41;10.00;99.90
23544;DHT22;11950;51.230;4.012;2024-03-23T07:51:17;10.10;99.90
23544;DHT22;11950;51.230;4.012;2024-03-23T07:53:45;10.30;99.90
23544;DHT22;11950;51.230;4.012;2024-03-23T07:56:12;10.40;99.90
23544;DHT22;11950;51.230;4.012;2024-03-23T07:58:39;10.60;99.90
23544;DHT22;11950;51.230;4.012;2024-03-23T08:01:06;10.70;99.90
23544;DHT22;11950;51.230;4.012;2024-03-23T08:03:36;10.80;99.90
23544;DHT22;11950;51.230;4.012;2024-03-23T08:08:39;11.00;99.90
23544;DHT22;11950;51.230;4.012;2024-03-23T08:11:06;11.00;99.90
23544;DHT22;11950;51.230;4.012;2024-03-23T08:13:33;10.90;99.90
23544;DHT22;11950;51.230;4.012;2024-03-23T08:16:00;10.80;99.90
23544;DHT22;11950;51.230;4.012;2024-03-23T08:18:27;10.70;99.90
23544;DHT22;11950;51.230;4.012;2024-03-23T08:20:58;10.50;99.90
23544;DHT22;11950;51.230;4.012;2024-03-23T08:23:25;10.40;99.90
23544;DHT22;11950;51.230;4.012;2024-03-23T08:25:52;10.40;99.90
23544;DHT22;11950;51.230;4.012;2024-03-23T08:28:18;10.30;99.90
23544;DHT22;11950;51.230;4.012;2024-03-23T08:30:45;10.30;99.90
23544;DHT22;11950;51.230;4.012;2024-03-23T08:33:11;10.20;99.90
23544;DHT22;11950;51.230;4.012;2024-03-23T08:35:38;10.20;99.90
23544;DHT22;11950;51.230;4.012;2024-03-23T08:38:04;10.30;99.90
23544;DHT22;11950;51.230;4.012;2024-03-23T08:40:30;10.40;99.90
23544;DHT22;11950;51.230;4.012;2024-03-23T08:42:56;10.60;99.90
23544;DHT22;11950;51.230;4.012;2024-03-23T08:45:24;10.80;99.90
23544;DHT22;11950;51.230;4.012;2024-03-23T08:47:51;11.00;99.90
23544;DHT22;11950;51.230;4.012;2024-03-23T08:50:17;11.10;99.90
23544;DHT22;11950;51.230;4.012;2024-03-23T08:52:44;11.30;99.90
23544;DHT22;11950;51.230;4.012;2024-03-23T08:55:10;11.30;99.90
23544;DHT22;11950;51.230;4.012;2024-03-23T08:57:36;11.40;99.90
23544;DHT22;11950;51.230;4.012;2024-03-23T09:00:03;11.50;99.90
23544;DHT22;11950;51.230;4.012;2024-03-23T09:02:29;11.40;99.90
23544;DHT22;11950;51.230;4.012;2024-03-23T09:04:56;11.40;99.90
23544;DHT22;11950;51.230;4.012;2024-03-23T09:07:22;11.30;99.90
23544;DHT22;11950;51.230;4.012;2024-03-23T09:09:48;11.30;99.90
23544;DHT22;11950;51.230;4.012;2024-03-23T09:12:14;11.20;99.90
23544;DHT22;11950;51.230;4.012;2024-03-23T09:14:40;11.20;99.90
23544;DHT22;11950;51.230;4.012;2024-03-23T09:17:07;11.10;99.90
23544;DHT22;11950;51.230;4.012;2024-03-23T09:19:34;11.10;99.90
23544;DHT22;11950;51.230;4.012;2024-03-23T09:22:00;11.00;99.90
23544;DHT22;11950;51.230;4.012;2024-03-23T09:24:26;11.00;99.90
23544;DHT22;11950;51.230;4.012;2024-03-23T09:26:52;10.90;99.90
23544;DHT22;11950;51.230;4.012;2024-03-23T09:29:19;10.90;99.90
23544;DHT22;11950;51.230;4.012;2024-03-23T09:31:45;11.00;99.90
23544;DHT22;11950;51.230;4.012;2024-03-23T09:34:11;11.20;99.90
23544;DHT22;11950;51.230;4.012;2024-03-23T09:36:37;11.30;99.90
23544;DHT22;11950;51.230;4.012;2024-03-23T09:39:04;11.40;99.90
23544;DHT22;11950;51.230;4.012;2024-03-23T09:41:31;11.50;99.90
23544;DHT22;11950;51.230;4.012;2024-03-23T09:43:57;11.60;99.90
23544;DHT22;11950;51.230;4.012;2024-03-23T09:46:24;11.60;99.90
23544;DHT22;11950;51.230;4.012;2024-03-23T09:48:51;11.70;99.90
23544;DHT22;11950;51.230;4.012;2024-03-23T09:51:17;11.80;99.90
23544;DHT22;11950;51.230;4.012;2024-03-23T09:53:43;11.80;99.90
23544;DHT22;11950;51.230;4.012;2024-03-23T09:56:09;11.80;99.90
23544;DHT22;11950;51.230;4.012;2024-03-23T09:58:36;11.60;99.90
23544;DHT22;11950;51.230;4.012;2024-03-23T10:01:03;11.50;99.90
23544;DHT22;11950;51.230;4.012;2024-03-23T10:03:29;11.30;99.90
23544;DHT22;11950;51.230;4.012;2024-03-23T10:06:03;11.10;99.90
23544;DHT22;11950;51.230;4.012;2024-03-23T10:08:31;10.80;99.90
23544;DHT22;11950;51.230;4.012;2024-03-23T10:11:15;10.60;99.90
23544;DHT22;11950;51.230;4.012;2024-03-23T10:13:42;10.50;99.90
23544;DHT22;11950;51.230;4.012;2024-03-23T10:16:10;10.40;99.90
23544;DHT22;11950;51.230;4.012;2024-03-23T10:18:39;10.40;99.90
23544;DHT22;11950;51.230;4.012;2024-03-23T10:23:35;10.60;99.90
23544;DHT22;11950;51.230;4.012;2024-03-23T10:26:19;10.70;99.90
23544;DHT22;11950;51.230;4.012;2024-03-23T10:28:55;10.70;99.90
23544;DHT22;11950;51.230;4.012;2024-03-23T10:31:33;10.80;99.90
23544;DHT22;11950;51.230;4.012;2024-03-23T10:34:03;10.90;99.90
23544;DHT22;11950;51.230;4.012;2024-03-23T10:36:30;11.10;99.90
23544;DHT22;11950;51.230;4.012;2024-03-23T10:38:56;11.20;99.90
23544;DHT22;11950;51.230;4.012;2024-03-23T10:41:29;11.40;99.90
23544;DHT22;11950;51.230;4.012;2024-03-23T10:43:58;11.60;99.90
23544;DHT22;11950;51.230;4.012;2024-03-23T10:46:25;11.80;99.90
23544;DHT22;11950;51.230;4.012;2024-03-23T10:48:51;12.00;99.90
23544;DHT22;11950;51.230;4.012;2024-03-23T10:51:18;12.10;99.90
23544;DHT22;11950;51.230;4.012;2024-03-23T10:53:45;12.20;99.90
23544;DHT22;11950;51.230;4.012;2024-03-23T10:56:12;12.30;99.90
23544;DHT22;11950;51.230;4.012;2024-03-23T10:58:43;12.60;99.90
23544;DHT22;11950;51.230;4.012;2024-03-23T11:01:13;12.70;99.90
23544;DHT22;11950;51.230;4.012;2024-03-23T11:03:45;12.90;99.90
23544;DHT22;11950;51.230;4.012;2024-03-23T11:06:34;12.90;99.90
23544;DHT22;11950;51.230;4.012;2024-03-23T11:09:01;12.90;99.90
23544;DHT22;11950;51.230;4.012;2024-03-23T11:11:27;12.90;99.90
23544;DHT22;11950;51.230;4.012;2024-03-23T11:13:57;12.80;99.90
23544;DHT22;11950;51.230;4.012;2024-03-23T11:16:28;12.70;99.90
23544;DHT22;11950;51.230;4.012;2024-03-23T11:19:33;12.60;99.90
23544;DHT22;11950;51.230;4.012;2024-03-23T11:22:00;12.40;99.90
23544;DHT22;11950;51.230;4.012;2024-03-23T11:24:26;12.30;99.90
23544;DHT22;11950;51.230;4.012;2024-03-23T11:26:52;12.20;99.90
23544;DHT22;11950;51.230;4.012;2024-03-23T11:29:18;12.10;99.90
23544;DHT22;11950;51.230;4.012;2024-03-23T11:31:48;12.00;99.90
23544;DHT22;11950;51.230;4.012;2024-03-23T11:34:15;12.10;99.90
23544;DHT22;11950;51.230;4.012;2024-03-23T11:36:43;12.30;99.90
23544;DHT22;11950;51.230;4.012;2024-03-23T11:39:16;12.50;99.90
23544;DHT22;11950;51.230;4.012;2024-03-23T11:41:50;12.60;99.90
23544;DHT22;11950;51.230;4.012;2024-03-23T11:44:25;12.80;99.90
23544;DHT22;11950;51.230;4.012;2024-03-23T11:46:53;12.80;99.90
23544;DHT22;11950;51.230;4.012;2024-03-23T11:49:25;12.90;99.90
23544;DHT22;11950;51.230;4.012;2024-03-23T11:51:53;13.00;99.90
23544;DHT22;11950;51.230;4.012;2024-03-23T11:54:21;13.10;99.90
23544;DHT22;11950;51.230;4.012;2024-03-23T11:59:34;13.20;99.90
23544;DHT22;11950;51.230;4.012;2024-03-23T12:02:05;13.20;99.90
23544;DHT22;11950;51.230;4.012;2024-03-23T12:04:32;13.10;99.90
23544;DHT22;11950;51.230;4.012;2024-03-23T12:07:17;13.00;99.90
23544;DHT22;11950;51.230;4.012;2024-03-23T12:09:45;12.90;99.90
23544;DHT22;11950;51.230;4.012;2024-03-23T12:12:16;12.90;99.90
23544;DHT22;11950;51.230;4.012;2024-03-23T12:15:01;12.90;99.90
23544;DHT22;11950;51.230;4.012;2024-03-23T12:17:28;13.00;99.90
23544;DHT22;11950;51.230;4.012;2024-03-23T12:19:54;13.10;99.90
23544;DHT22;11950;51.230;4.012;2024-03-23T12:22:21;13.10;99.90
23544;DHT22;11950;51.230;4.012;2024-03-23T12:24:50;13.10;99.90
23544;DHT22;11950;51.230;4.012;2024-03-23T12:27:17;13.10;99.90
23544;DHT22;11950;51.230;4.012;2024-03-23T12:29:43;13.10;99.90
23544;DHT22;11950;51.230;4.012;2024-03-23T12:32:12;13.20;99.90
23544;DHT22;11950;51.230;4.012;2024-03-23T12:34:39;13.20;99.90
23544;DHT22;11950;51.230;4.012;2024-03-23T12:37:13;13.20;99.90
23544;DHT22;11950;51.230;4.012;2024-03-23T12:39:40;13.10;99.90
23544;DHT22;11950;51.230;4.012;2024-03-23T12:42:08;13.00;99.90
23544;DHT22;11950;51.230;4.012;2024-03-23T12:44:34;13.00;99.90
23544;DHT22;11950;51.230;4.012;2024-03-23T12:47:01;13.00;99.90
23544;DHT22;11950;51.230;4.012;2024-03-23T12:49:27;12.90;99.90
23544;DHT22;11950;51.230;4.012;2024-03-23T12:51:55;12.80;99.90
23544;DHT22;11950;51.230;4.012;2024-03-23T12:54:22;12.70;99.90
23544;DHT22;11950;51.230;4.012;2024-03-23T12:56:57;12.50;99.90
23544;DHT22;11950;51.230;4.012;2024-03-23T12:59:24;12.30;99.90
23544;DHT22;11950;51.230;4.012;2024-03-23T13:01:51;12.00;99.90
23544;DHT22;11950;51.230;4.012;2024-03-23T13:04:17;11.70;99.90
23544;DHT22;11950;51.230;4.012;2024-03-23T13:06:43;11.50;99.90
23544;DHT22;11950;51.230;4.012;2024-03-23T13:09:09;11.20;99.90
23544;DHT22;11950;51.230;4.012;2024-03-23T13:11:36;10.90;99.90
23544;DHT22;11950;51.230;4.012;2024-03-23T13:14:05;10.80;99.90
23544;DHT22;11950;51.230;4.012;2024-03-23T13:16:33;10.60;99.90
23544;DHT22;11950;51.230;4.012;2024-03-23T13:18:59;10.50;99.90
23544;DHT22;11950;51.230;4.012;2024-03-23T13:21:27;10.50;99.90
23544;DHT22;11950;51.230;4.012;2024-03-23T13:23:53;10.60;99.90
23544;DHT22;11950;51.230;4.012;2024-03-23T13:26:20;10.70;99.90
23544;DHT22;11950;51.230;4.012;2024-03-23T13:28:59;10.90;99.90
23544;DHT22;11950;51.230;4.012;2024-03-23T13:31:27;11.00;99.90
23544;DHT22;11950;51.230;4.012;2024-03-23T13:33:53;11.10;99.90
23544;DHT22;11950;51.230;4.012;2024-03-23T13:36:22;11.10;99.90
23544;DHT22;11950;51.230;4.012;2024-03-23T13:39:05;11.10;99.90
23544;DHT22;11950;51.230;4.012;2024-03-23T13:42:06;11.10;99.90
23544;DHT22;11950;51.230;4.012;2024-03-23T13:44:59;11.20;99.90
23544;DHT22;11950;51.230;4.012;2024-03-23T13:47:45;11.40;99.90
23544;DHT22;11950;51.230;4.012;2024-03-23T13:50:41;11.50;99.90
23544;DHT22;11950;51.230;4.012;2024-03-23T13:53:38;11.60;99.90
23544;DHT22;11950;51.230;4.012;2024-03-23T13:56:04;11.70;99.90
23544;DHT22;11950;51.230;4.012;2024-03-23T13:58:32;11.80;99.90
23544;DHT22;11950;51.230;4.012;2024-03-23T14:00:59;11.90;99.90
23544;DHT22;11950;51.230;4.012;2024-03-23T14:03:25;12.00;99.90
23544;DHT22;11950;51.230;4.012;2024-03-23T14:05:51;12.00;99.90
23544;DHT22;11950;51.230;4.012;2024-03-23T14:08:18;12.00;99.90
23544;DHT22;11950;51.230;4.012;2024-03-23T14:10:46;12.00;99.90
23544;DHT22;11950;51.230;4.012;2024-03-23T14:13:12;12.00;99.90
23544;DHT22;11950;51.230;4.012;2024-03-23T14:15:38;12.00;99.90
23544;DHT22;11950;51.230;4.012;2024-03-23T14:18:05;12.00;99.90
23544;DHT22;11950;51.230;4.012;2024-03-23T14:20:31;11.90;99.90
23544;DHT22;11950;51.230;4.012;2024-03-23T14:22:57;11.90;99.90
23544;DHT22;11950;51.230;4.012;2024-03-23T14:25:23;11.80;99.90
23544;DHT22;11950;51.230;4.012;2024-03-23T14:27:53;11.70;99.90
23544;DHT22;11950;51.230;4.012;2024-03-23T14:30:19;11.80;99.90
23544;DHT22;11950;51.230;4.012;2024-03-23T14:32:45;11.80;99.90
23544;DHT22;11950;51.230;4.012;2024-03-23T14:35:11;11.80;99.90
23544;DHT22;11950;51.230;4.012;2024-03-23T14:37:38;11.80;99.90
23544;DHT22;11950;51.230;4.012;2024-03-23T14:40:04;11.70;99.90
23544;DHT22;11950;51.230;4.012;2024-03-23T14:42:31;11.70;99.90
23544;DHT22;11950;51.230;4.012;2024-03-23T14:44:58;11.60;99.90
23544;DHT22;11950;51.230;4.012;2024-03-23T14:47:24;11.60;99.90
23544;DHT22;11950;51.230;4.012;2024-03-23T14:49:51;11.60;99.90
23544;DHT22;11950;51.230;4.012;2024-03-23T14:52:17;11.60;99.90
23544;DHT22;11950;51.230;4.012;2024-03-23T14:54:44;11.50;99.90
23544;DHT22;11950;51.230;4.012;2024-03-23T14:57:11;11.50;99.90
23544;DHT22;11950;51.230;4.012;2024-03-23T14:59:37;11.50;99.90
23544;DHT22;11950;51.230;4.012;2024-03-23T15:02:05;11.50;99.90
23544;DHT22;11950;51.230;4.012;2024-03-23T15:04:31;11.50;99.90
23544;DHT22;11950;51.230;4.012;2024-03-23T15:06:57;11.50;99.90
23544;DHT22;11950;51.230;4.012;2024-03-23T15:09:24;11.50;99.90
23544;DHT22;11950;51.230;4.012;2024-03-23T15:11:50;11.50;99.90
23544;DHT22;11950;51.230;4.012;2024-03-23T15:14:16;11.60;99.90
23544;DHT22;11950;51.230;4.012;2024-03-23T15:16:42;11.60;99.90
23544;DHT22;11950;51.230;4.012;2024-03-23T15:19:09;11.60;99.90
23544;DHT22;11950;51.230;4.012;2024-03-23T15:21:35;11.60;99.90
23544;DHT22;11950;51.230;4.012;2024-03-23T15:24:01;11.70;99.90
23544;DHT22;11950;51.230;4.012;2024-03-23T15:26:27;11.70;99.90
23544;DHT22;11950;51.230;4.012;2024-03-23T15:28:54;11.70;99.90
23544;DHT22;11950;51.230;4.012;2024-03-23T15:31:23;11.70;99.90
23544;DHT22;11950;51.230;4.012;2024-03-23T15:33:49;11.80;99.90
23544;DHT22;11950;51.230;4.012;2024-03-23T15:36:16;11.80;99.90
23544;DHT22;11950;51.230;4.012;2024-03-23T15:38:43;11.80;99.90
23544;DHT22;11950;51.230;4.012;2024-03-23T15:41:10;11.80;99.90
23544;DHT22;11950;51.230;4.012;2024-03-23T15:43:36;11.80;99.90
23544;DHT22;11950;51.230;4.012;2024-03-23T15:46:05;11.90;99.90
23544;DHT22;11950;51.230;4.012;2024-03-23T15:48:32;12.00;99.90
23544;DHT22;11950;51.230;4.012;2024-03-23T15:50:59;12.00;99.90
23544;DHT22;11950;51.230;4.012;2024-03-23T15:53:27;12.00;99.90
23544;DHT22;11950;51.230;4.012;2024-03-23T15:56:01;12.00;99.90
23544;DHT22;11950;51.230;4.012;2024-03-23T15:58:29;12.00;99.90
23544;DHT22;11950;51.230;4.012;2024-03-23T16:00:55;12.00;99.90
23544;DHT22;11950;51.230;4.012;2024-03-23T16:03:22;11.90;99.90
23544;DHT22;11950;51.230;4.012;2024-03-23T16:06:02;11.90;99.90
23544;DHT22;11950;51.230;4.012;2024-03-23T16:08:29;11.90;99.90
23544;DHT22;11950;51.230;4.012;2024-03-23T16:11:06;11.90;99.90
23544;DHT22;11950;51.230;4.012;2024-03-23T16:13:33;11.80;99.90
23544;DHT22;11950;51.230;4.012;2024-03-23T16:16:01;11.80;99.90
23544;DHT22;11950;51.230;4.012;2024-03-23T16:18:34;11.70;99.90
23544;DHT22;11950;51.230;4.012;2024-03-23T16:21:03;11.70;99.90
23544;DHT22;11950;51.230;4.012;2024-03-23T16:23:31;11.60;99.90
23544;DHT22;11950;51.230;4.012;2024-03-23T16:25:58;11.60;99.90
23544;DHT22;11950;51.230;4.012;2024-03-23T16:28:30;11.60;99.90
23544;DHT22;11950;51.230;4.012;2024-03-23T16:33:24;11.50;99.90
23544;DHT22;11950;51.230;4.012;2024-03-23T16:36:00;11.50;99.90
23544;DHT22;11950;51.230;4.012;2024-03-23T16:38:28;11.50;99.90
23544;DHT22;11950;51.230;4.012;2024-03-23T16:43:25;11.40;99.90
23544;DHT22;11950;51.230;4.012;2024-03-23T16:45:53;11.30;99.90